sensor_id;sensor_type;location;lat;lon;timestamp;temperature;humidity
5415;DHT22;2730;51.512;7.504;2023-04-23T00:00:56;11.60;99.90
5415;DHT22;2730;51.512;7.504;2023-04-23T00:03:27;11.60;99.90
5415;DHT22;2730;51.512;7.504;2023-04-23T00:05:57;11.60;99.90
5415;DHT22;2730;51.512;7.504;2023-04-23T00:08:26;11.60;99.90
5415;DHT22;2730;51.512;7.504;2023-04-23T00:10:54;11.60;99.90
5415;DHT22;2730;51.512;7.504;2023-04-23T00:13:21;11.50;99.90
5415;DHT22;2730;51.512;7.504;2023-04-23T00:15:48;11.40;99.90
5415;DHT22;2730;51.512;7.504;2023-04-23T00:18:15;11.30;99.90
5415;DHT22;2730;51.512;7.504;2023-04-23T00:20:42;11.30;99.90
5415;DHT22;2730;51.512;7.504;2023-04-23T00:23:10;11.30;99.90
5415;DHT22;2730;51.512;7.504;2023-04-23T00:25:38;11.30;99.90
5415;DHT22;2730;51.512;7.504;2023-04-23T00:28:04;11.30;99.90
5415;DHT22;2730;51.512;7.504;2023-04-23T00:30:31;11.20;99.90
5415;DHT22;2730;51.512;7.504;2023-04-23T00:32:58;11.20;99.90
5415;DHT22;2730;51.512;7.504;2023-04-23T00:35:25;11.20;99.90
5415;DHT22;2730;51.512;7.504;2023-04-23T00:37:52;11.20;99.90
5415;DHT22;2730;51.512;7.504;2023-04-23T00:40:19;11.20;99.90
5415;DHT22;2730;51.512;7.504;2023-04-23T00:42:47;11.10;99.90
5415;DHT22;2730;51.512;7.504;2023-04-23T00:45:16;11.10;99.90
5415;DHT22;2730;51.512;7.504;2023-04-23T00:47:43;11.00;99.90
5415;DHT22;2730;51.512;7.504;2023-04-23T00:50:10;11.00;99.90
5415;DHT22;2730;51.512;7.504;2023-04-23T00:52:37;11.00;99.90
5415;DHT22;2730;51.512;7.504;2023-04-23T00:55:05;11.10;99.90
5415;DHT22;2730;51.512;7.504;2023-04-23T00:57:33;11.10;99.90
5415;DHT22;2730;51.512;7.504;2023-04-23T01:00:02;11.10;99.90
5415;DHT22;2730;51.512;7.504;2023-04-23T01:02:30;11.10;99.90
5415;DHT22;2730;51.512;7.504;2023-04-23T01:04:57;11.00;99.90
5415;DHT22;2730;51.512;7.504;2023-04-23T01:07:25;11.00;99.90
5415;DHT22;2730;51.512;7.504;2023-04-23T01:09:53;11.00;99.90
5415;DHT22;2730;51.512;7.504;2023-04-23T01:12:19;11.00;99.90
5415;DHT22;2730;51.512;7.504;2023-04-23T01:14:46;11.00;99.90
5415;DHT22;2730;51.512;7.504;2023-04-23T01:17:15;11.00;99.90
5415;DHT22;2730;51.512;7.504;2023-04-23T01:19:41;11.00;99.90
5415;DHT22;2730;51.512;7.504;2023-04-23T01:22:10;11.10;99.90
5415;DHT22;2730;51.512;7.504;2023-04-23T01:24:37;11.00;99.90
5415;DHT22;2730;51.512;7.504;2023-04-23T01:27:04;11.10;99.90
5415;DHT22;2730;51.512;7.504;2023-04-23T01:29:32;11.00;99.90
5415;DHT22;2730;51.512;7.504;2023-04-23T01:31:59;11.00;99.90
5415;DHT22;2730;51.512;7.504;2023-04-23T01:34:27;11.00;99.90
5415;DHT22;2730;51.512;7.504;2023-04-23T01:36:55;11.00;99.90
5415;DHT22;2730;51.512;7.504;2023-04-23T01:39:23;11.00;99.90
5415;DHT22;2730;51.512;7.504;2023-04-23T01:41:50;11.00;99.90
5415;DHT22;2730;51.512;7.504;2023-04-23T01:44:18;10.90;99.90
5415;DHT22;2730;51.512;7.504;2023-04-23T01:46:45;10.90;99.90
5415;DHT22;2730;51.512;7.504;2023-04-23T01:49:12;10.80;99.90
5415;DHT22;2730;51.512;7.504;2023-04-23T01:51:39;10.80;99.90
5415;DHT22;2730;51.512;7.504;2023-04-23T01:54:06;10.80;99.90
5415;DHT22;2730;51.512;7.504;2023-04-23T01:56:34;10.80;99.90
5415;DHT22;2730;51.512;7.504;2023-04-23T01:59:01;10.80;99.90
5415;DHT22;2730;51.512;7.504;2023-04-23T02:01:40;10.80;99.90
5415;DHT22;2730;51.512;7.504;2023-04-23T02:04:08;10.80;99.90
5415;DHT22;2730;51.512;7.504;2023-04-23T02:06:35;10.80;99.90
5415;DHT22;2730;51.512;7.504;2023-04-23T02:09:01;10.70;99.90
5415;DHT22;2730;51.512;7.504;2023-04-23T02:11:28;10.70;99.90
5415;DHT22;2730;51.512;7.504;2023-04-23T02:13:56;10.70;99.90
5415;DHT22;2730;51.512;7.504;2023-04-23T02:16:23;10.70;99.90
5415;DHT22;2730;51.512;7.504;2023-04-23T02:18:51;10.70;99.90
5415;DHT22;2730;51.512;7.504;2023-04-23T02:21:17;10.60;99.90
5415;DHT22;2730;51.512;7.504;2023-04-23T02:23:44;10.60;99.90
5415;DHT22;2730;51.512;7.504;2023-04-23T02:26:11;10.60;99.90
5415;DHT22;2730;51.512;7.504;2023-04-23T02:28:37;10.50;99.90
5415;DHT22;2730;51.512;7.504;2023-04-23T02:31:06;10.50;99.90
5415;DHT22;2730;51.512;7.504;2023-04-23T02:33:33;10.40;99.90
5415;DHT22;2730;51.512;7.504;2023-04-23T02:36:00;10.30;99.90
5415;DHT22;2730;51.512;7.504;2023-04-23T02:38:27;10.30;99.90
5415;DHT22;2730;51.512;7.504;2023-04-23T02:40:53;10.10;99.90
5415;DHT22;2730;51.512;7.504;2023-04-23T02:43:20;10.00;99.90
5415;DHT22;2730;51.512;7.504;2023-04-23T02:45:47;10.00;99.90
5415;DHT22;2730;51.512;7.504;2023-04-23T02:48:15;9.90;99.90
5415;DHT22;2730;51.512;7.504;2023-04-23T02:50:42;9.90;99.90
5415;DHT22;2730;51.512;7.504;2023-04-23T02:53:09;9.80;99.90
5415;DHT22;2730;51.512;7.504;2023-04-23T02:55:36;9.80;99.90
5415;DHT22;2730;51.512;7.504;2023-04-23T02:58:02;9.80;99.90
5415;DHT22;2730;51.512;7.504;2023-04-23T03:00:29;9.70;99.90
5415;DHT22;2730;51.512;7.504;2023-04-23T03:02:56;9.70;99.90
5415;DHT22;2730;51.512;7.504;2023-04-23T03:05:24;9.70;99.90
5415;DHT22;2730;51.512;7.504;2023-04-23T03:07:51;9.70;99.90
5415;DHT22;2730;51.512;7.504;2023-04-23T03:10:18;9.70;99.90
5415;DHT22;2730;51.512;7.504;2023-04-23T03:12:45;9.70;99.90
5415;DHT22;2730;51.512;7.504;2023-04-23T03:15:12;9.60;99.90
5415;DHT22;2730;51.512;7.504;2023-04-23T03:17:38;9.60;99.90
5415;DHT22;2730;51.512;7.504;2023-04-23T03:20:07;9.70;99.90
5415;DHT22;2730;51.512;7.504;2023-04-23T03:22:37;9.60;99.90
5415;DHT22;2730;51.512;7.504;2023-04-23T03:25:04;9.60;99.90
5415;DHT22;2730;51.512;7.504;2023-04-23T03:27:33;9.60;99.90
5415;DHT22;2730;51.512;7.504;2023-04-23T03:29:59;9.60;99.90
5415;DHT22;2730;51.512;7.504;2023-04-23T03:32:26;9.60;99.90
5415;DHT22;2730;51.512;7.504;2023-04-23T03:34:53;9.60;99.90
5415;DHT22;2730;51.512;7.504;2023-04-23T03:37:20;9.60;99.90
5415;DHT22;2730;51.512;7.504;2023-04-23T03:39:48;9.60;99.90
5415;DHT22;2730;51.512;7.504;2023-04-23T03:42:15;9.60;99.90
5415;DHT22;2730;51.512;7.504;2023-04-23T03:44:42;9.60;99.90
5415;DHT22;2730;51.512;7.504;2023-04-23T03:47:09;9.60;99.90
5415;DHT22;2730;51.512;7.504;2023-04-23T03:49:35;9.70;99.90
5415;DHT22;2730;51.512;7.504;2023-04-23T03:52:02;9.70;99.90
5415;DHT22;2730;51.512;7.504;2023-04-23T03:54:29;9.70;99.90
5415;DHT22;2730;51.512;7.504;2023-04-23T03:56:57;9.70;99.90
5415;DHT22;2730;51.512;7.504;2023-04-23T03:59:24;9.70;99.90
5415;DHT22;2730;51.512;7.504;2023-04-23T04:01:51;9.70;99.90
5415;DHT22;2730;51.512;7.504;2023-04-23T04:04:18;9.70;99.90
5415;DHT22;2730;51.512;7.504;2023-04-23T04:06:45;9.70;99.90
5415;DHT22;2730;51.512;7.504;2023-04-23T04:09:12;9.70;99.90
5415;DHT22;2730;51.512;7.504;2023-04-23T04:11:38;9.80;99.90
5415;DHT22;2730;51.512;7.504;2023-04-23T04:14:06;9.90;99.90
5415;DHT22;2730;51.512;7.504;2023-04-23T04:16:33;9.90;99.90
5415;DHT22;2730;51.512;7.504;2023-04-23T04:19:00;9.90;99.90
5415;DHT22;2730;51.512;7.504;2023-04-23T04:21:27;9.90;99.90
5415;DHT22;2730;51.512;7.504;2023-04-23T04:23:55;9.90;99.90
5415;DHT22;2730;51.512;7.504;2023-04-23T04:26:21;9.80;99.90
5415;DHT22;2730;51.512;7.504;2023-04-23T04:28:48;9.90;99.90
5415;DHT22;2730;51.512;7.504;2023-04-23T04:31:17;9.90;99.90
5415;DHT22;2730;51.512;7.504;2023-04-23T04:33:44;9.90;99.90
5415;DHT22;2730;51.512;7.504;2023-04-23T04:36:11;9.90;99.90
5415;DHT22;2730;51.512;7.504;2023-04-23T04:38:39;10.00;99.90
5415;DHT22;2730;51.512;7.504;2023-04-23T04:41:06;10.00;99.90
5415;DHT22;2730;51.512;7.504;2023-04-23T04:43:33;10.00;99.90
5415;DHT22;2730;51.512;7.504;2023-04-23T04:46:00;10.10;99.90
5415;DHT22;2730;51.512;7.504;2023-04-23T04:48:28;10.10;99.90
5415;DHT22;2730;51.512;7.504;2023-04-23T04:50:55;10.10;99.90
5415;DHT22;2730;51.512;7.504;2023-04-23T04:53:22;10.10;99.90
5415;DHT22;2730;51.512;7.504;2023-04-23T04:55:49;10.20;99.90
5415;DHT22;2730;51.512;7.504;2023-04-23T04:58:16;10.30;99.90
5415;DHT22;2730;51.512;7.504;2023-04-23T05:00:43;10.30;99.90
5415;DHT22;2730;51.512;7.504;2023-04-23T05:03:11;10.30;99.90
5415;DHT22;2730;51.512;7.504;2023-04-23T05:05:39;10.30;99.90
5415;DHT22;2730;51.512;7.504;2023-04-23T05:08:06;10.40;99.90
5415;DHT22;2730;51.512;7.504;2023-04-23T05:10:33;10.30;99.90
5415;DHT22;2730;51.512;7.504;2023-04-23T05:12:59;10.30;99.90
5415;DHT22;2730;51.512;7.504;2023-04-23T05:15:26;10.40;99.90
5415;DHT22;2730;51.512;7.504;2023-04-23T05:17:53;10.40;99.90
5415;DHT22;2730;51.512;7.504;2023-04-23T05:20:20;10.40;99.90
5415;DHT22;2730;51.512;7.504;2023-04-23T05:22:49;10.50;99.90
5415;DHT22;2730;51.512;7.504;2023-04-23T05:25:15;10.60;99.90
5415;DHT22;2730;51.512;7.504;2023-04-23T05:27:42;10.70;99.90
5415;DHT22;2730;51.512;7.504;2023-04-23T05:30:10;10.70;99.90
5415;DHT22;2730;51.512;7.504;2023-04-23T05:32:37;10.80;99.90
5415;DHT22;2730;51.512;7.504;2023-04-23T05:35:04;10.80;99.90
5415;DHT22;2730;51.512;7.504;2023-04-23T05:37:31;10.80;99.90
5415;DHT22;2730;51.512;7.504;2023-04-23T05:40:00;10.90;99.90
5415;DHT22;2730;51.512;7.504;2023-04-23T05:42:29;10.90;99.90
5415;DHT22;2730;51.512;7.504;2023-04-23T05:44:55;10.90;99.90
5415;DHT22;2730;51.512;7.504;2023-04-23T05:47:22;10.90;99.90
5415;DHT22;2730;51.512;7.504;2023-04-23T05:49:49;10.90;99.90
5415;DHT22;2730;51.512;7.504;2023-04-23T05:52:16;11.00;99.90
5415;DHT22;2730;51.512;7.504;2023-04-23T05:54:43;11.00;99.90
5415;DHT22;2730;51.512;7.504;2023-04-23T05:57:11;11.00;99.90
5415;DHT22;2730;51.512;7.504;2023-04-23T05:59:38;11.10;99.90
5415;DHT22;2730;51.512;7.504;2023-04-23T06:02:05;11.20;99.90
5415;DHT22;2730;51.512;7.504;2023-04-23T06:04:32;11.30;99.90
5415;DHT22;2730;51.512;7.504;2023-04-23T06:06:59;11.30;99.90
5415;DHT22;2730;51.512;7.504;2023-04-23T06:09:26;11.50;99.90
5415;DHT22;2730;51.512;7.504;2023-04-23T06:11:53;11.50;99.90
5415;DHT22;2730;51.512;7.504;2023-04-23T06:14:21;11.60;99.90
5415;DHT22;2730;51.512;7.504;2023-04-23T06:16:48;11.70;99.90
5415;DHT22;2730;51.512;7.504;2023-04-23T06:19:15;11.80;99.90
5415;DHT22;2730;51.512;7.504;2023-04-23T06:21:41;12.00;99.90
5415;DHT22;2730;51.512;7.504;2023-04-23T06:24:08;12.20;99.90
5415;DHT22;2730;51.512;7.504;2023-04-23T06:26:35;12.90;99.90
5415;DHT22;2730;51.512;7.504;2023-04-23T06:29:01;14.40;99.90
5415;DHT22;2730;51.512;7.504;2023-04-23T06:31:30;16.10;99.90
5415;DHT22;2730;51.512;7.504;2023-04-23T06:33:56;17.80;99.90
5415;DHT22;2730;51.512;7.504;2023-04-23T06:36:23;19.20;99.90
5415;DHT22;2730;51.512;7.504;2023-04-23T06:38:50;20.40;99.90
5415;DHT22;2730;51.512;7.504;2023-04-23T06:41:17;21.10;99.90
5415;DHT22;2730;51.512;7.504;2023-04-23T06:43:44;20.00;99.90
5415;DHT22;2730;51.512;7.504;2023-04-23T06:46:12;18.90;99.90
5415;DHT22;2730;51.512;7.504;2023-04-23T06:48:41;17.90;99.90
5415;DHT22;2730;51.512;7.504;2023-04-23T06:51:07;17.10;99.90
5415;DHT22;2730;51.512;7.504;2023-04-23T06:53:35;16.80;99.90
5415;DHT22;2730;51.512;7.504;2023-04-23T06:56:01;16.30;99.90
5415;DHT22;2730;51.512;7.504;2023-04-23T06:58:28;16.40;99.90
5415;DHT22;2730;51.512;7.504;2023-04-23T07:00:56;17.00;99.90
5415;DHT22;2730;51.512;7.504;2023-04-23T07:03:25;17.20;99.90
5415;DHT22;2730;51.512;7.504;2023-04-23T07:05:54;17.10;99.90
5415;DHT22;2730;51.512;7.504;2023-04-23T07:08:21;16.90;99.90
5415;DHT22;2730;51.512;7.504;2023-04-23T07:10:47;16.80;99.90
5415;DHT22;2730;51.512;7.504;2023-04-23T07:13:14;17.20;99.90
5415;DHT22;2730;51.512;7.504;2023-04-23T07:15:41;17.80;99.90
5415;DHT22;2730;51.512;7.504;2023-04-23T07:18:08;18.00;99.90
5415;DHT22;2730;51.512;7.504;2023-04-23T07:20:35;17.50;99.90
5415;DHT22;2730;51.512;7.504;2023-04-23T07:23:04;17.10;99.90
5415;DHT22;2730;51.512;7.504;2023-04-23T07:25:30;16.80;99.90
5415;DHT22;2730;51.512;7.504;2023-04-23T07:27:57;16.70;99.90
5415;DHT22;2730;51.512;7.504;2023-04-23T07:30:25;16.70;99.90
5415;DHT22;2730;51.512;7.504;2023-04-23T07:32:52;16.70;99.90
5415;DHT22;2730;51.512;7.504;2023-04-23T07:35:20;16.70;99.90
5415;DHT22;2730;51.512;7.504;2023-04-23T07:37:47;16.50;99.90
5415;DHT22;2730;51.512;7.504;2023-04-23T07:40:19;16.30;99.90
5415;DHT22;2730;51.512;7.504;2023-04-23T07:42:46;16.20;99.90
5415;DHT22;2730;51.512;7.504;2023-04-23T07:45:13;16.30;99.90
5415;DHT22;2730;51.512;7.504;2023-04-23T07:47:40;16.50;99.90
5415;DHT22;2730;51.512;7.504;2023-04-23T07:50:07;17.60;99.90
5415;DHT22;2730;51.512;7.504;2023-04-23T07:52:34;18.80;99.90
5415;DHT22;2730;51.512;7.504;2023-04-23T07:55:01;20.30;99.90
5415;DHT22;2730;51.512;7.504;2023-04-23T07:57:29;21.50;99.90
5415;DHT22;2730;51.512;7.504;2023-04-23T07:59:56;22.40;96.70
5415;DHT22;2730;51.512;7.504;2023-04-23T08:02:23;22.70;96.10
5415;DHT22;2730;51.512;7.504;2023-04-23T08:04:50;23.00;94.40
5415;DHT22;2730;51.512;7.504;2023-04-23T08:07:17;23.60;93.00
5415;DHT22;2730;51.512;7.504;2023-04-23T08:09:44;24.20;91.90
5415;DHT22;2730;51.512;7.504;2023-04-23T08:12:11;23.70;91.60
5415;DHT22;2730;51.512;7.504;2023-04-23T08:14:39;23.90;90.90
5415;DHT22;2730;51.512;7.504;2023-04-23T08:17:06;24.00;91.10
5415;DHT22;2730;51.512;7.504;2023-04-23T08:19:33;24.30;87.30
5415;DHT22;2730;51.512;7.504;2023-04-23T08:22:00;24.90;85.60
5415;DHT22;2730;51.512;7.504;2023-04-23T08:24:26;24.60;84.30
5415;DHT22;2730;51.512;7.504;2023-04-23T08:26:53;23.70;87.20
5415;DHT22;2730;51.512;7.504;2023-04-23T08:29:21;23.60;87.70
5415;DHT22;2730;51.512;7.504;2023-04-23T08:31:49;23.40;88.80
5415;DHT22;2730;51.512;7.504;2023-04-23T08:34:16;24.00;87.00
5415;DHT22;2730;51.512;7.504;2023-04-23T08:36:43;24.70;81.80
5415;DHT22;2730;51.512;7.504;2023-04-23T08:39:10;25.30;80.20
5415;DHT22;2730;51.512;7.504;2023-04-23T08:41:39;24.80;80.80
5415;DHT22;2730;51.512;7.504;2023-04-23T08:44:12;25.10;78.80
5415;DHT22;2730;51.512;7.504;2023-04-23T08:46:41;25.50;77.50
5415;DHT22;2730;51.512;7.504;2023-04-23T08:49:13;25.20;76.90
5415;DHT22;2730;51.512;7.504;2023-04-23T08:51:42;25.70;75.90
5415;DHT22;2730;51.512;7.504;2023-04-23T08:54:14;26.00;72.50
5415;DHT22;2730;51.512;7.504;2023-04-23T08:56:41;26.30;72.90
5415;DHT22;2730;51.512;7.504;2023-04-23T08:59:10;25.90;73.50
5415;DHT22;2730;51.512;7.504;2023-04-23T09:01:36;24.80;76.60
5415;DHT22;2730;51.512;7.504;2023-04-23T09:04:03;25.10;75.30
5415;DHT22;2730;51.512;7.504;2023-04-23T09:06:32;25.20;72.00
5415;DHT22;2730;51.512;7.504;2023-04-23T09:08:59;24.60;73.40
5415;DHT22;2730;51.512;7.504;2023-04-23T09:11:26;23.60;76.60
5415;DHT22;2730;51.512;7.504;2023-04-23T09:13:55;22.30;82.00
5415;DHT22;2730;51.512;7.504;2023-04-23T09:16:22;22.00;84.90
5415;DHT22;2730;51.512;7.504;2023-04-23T09:18:49;22.10;86.00
5415;DHT22;2730;51.512;7.504;2023-04-23T09:21:17;21.60;86.60
5415;DHT22;2730;51.512;7.504;2023-04-23T09:23:45;20.90;86.80
5415;DHT22;2730;51.512;7.504;2023-04-23T09:26:18;20.40;91.00
5415;DHT22;2730;51.512;7.504;2023-04-23T09:28:47;20.60;91.20
5415;DHT22;2730;51.512;7.504;2023-04-23T09:31:19;20.90;90.10
5415;DHT22;2730;51.512;7.504;2023-04-23T09:33:50;21.80;88.80
5415;DHT22;2730;51.512;7.504;2023-04-23T09:36:19;22.60;84.10
5415;DHT22;2730;51.512;7.504;2023-04-23T09:38:48;22.60;81.90
5415;DHT22;2730;51.512;7.504;2023-04-23T09:41:22;23.30;81.10
5415;DHT22;2730;51.512;7.504;2023-04-23T09:43:52;23.40;79.30
5415;DHT22;2730;51.512;7.504;2023-04-23T09:46:31;24.10;78.10
5415;DHT22;2730;51.512;7.504;2023-04-23T09:48:59;24.90;73.80
5415;DHT22;2730;51.512;7.504;2023-04-23T09:51:27;25.40;71.40
5415;DHT22;2730;51.512;7.504;2023-04-23T09:53:56;25.20;70.70
5415;DHT22;2730;51.512;7.504;2023-04-23T09:56:23;24.30;73.00
5415;DHT22;2730;51.512;7.504;2023-04-23T09:58:50;23.00;76.30
5415;DHT22;2730;51.512;7.504;2023-04-23T10:01:17;22.40;81.30
5415;DHT22;2730;51.512;7.504;2023-04-23T10:03:44;21.80;81.40
5415;DHT22;2730;51.512;7.504;2023-04-23T10:06:12;21.40;84.70
5415;DHT22;2730;51.512;7.504;2023-04-23T10:08:40;21.00;86.50
5415;DHT22;2730;51.512;7.504;2023-04-23T10:11:09;21.20;90.30
5415;DHT22;2730;51.512;7.504;2023-04-23T10:13:37;21.50;87.90
5415;DHT22;2730;51.512;7.504;2023-04-23T10:16:04;20.80;89.50
5415;DHT22;2730;51.512;7.504;2023-04-23T10:18:31;20.80;90.10
5415;DHT22;2730;51.512;7.504;2023-04-23T10:21:00;20.60;92.10
5415;DHT22;2730;51.512;7.504;2023-04-23T10:23:28;20.40;91.30
5415;DHT22;2730;51.512;7.504;2023-04-23T10:25:56;21.10;89.20
5415;DHT22;2730;51.512;7.504;2023-04-23T10:28:25;22.00;86.60
5415;DHT22;2730;51.512;7.504;2023-04-23T10:30:57;22.90;80.50
5415;DHT22;2730;51.512;7.504;2023-04-23T10:33:25;23.30;78.30
5415;DHT22;2730;51.512;7.504;2023-04-23T10:35:55;22.80;78.50
5415;DHT22;2730;51.512;7.504;2023-04-23T10:38:22;22.10;78.80
5415;DHT22;2730;51.512;7.504;2023-04-23T10:40:54;21.40;82.40
5415;DHT22;2730;51.512;7.504;2023-04-23T10:43:21;20.70;85.20
5415;DHT22;2730;51.512;7.504;2023-04-23T10:45:50;20.30;85.80
5415;DHT22;2730;51.512;7.504;2023-04-23T10:48:19;20.10;87.20
5415;DHT22;2730;51.512;7.504;2023-04-23T10:50:46;20.10;91.00
5415;DHT22;2730;51.512;7.504;2023-04-23T10:53:18;20.00;91.20
5415;DHT22;2730;51.512;7.504;2023-04-23T10:55:46;20.10;90.30
5415;DHT22;2730;51.512;7.504;2023-04-23T10:58:13;19.80;91.00
5415;DHT22;2730;51.512;7.504;2023-04-23T11:00:44;20.10;90.80
5415;DHT22;2730;51.512;7.504;2023-04-23T11:03:30;20.20;90.80
5415;DHT22;2730;51.512;7.504;2023-04-23T11:06:00;20.40;90.70
5415;DHT22;2730;51.512;7.504;2023-04-23T11:08:28;20.40;88.60
5415;DHT22;2730;51.512;7.504;2023-04-23T11:10:58;20.70;88.00
5415;DHT22;2730;51.512;7.504;2023-04-23T11:13:26;20.70;85.40
5415;DHT22;2730;51.512;7.504;2023-04-23T11:16:12;20.60;88.60
5415;DHT22;2730;51.512;7.504;2023-04-23T11:18:59;20.70;81.30
5415;DHT22;2730;51.512;7.504;2023-04-23T11:21:58;20.90;81.80
5415;DHT22;2730;51.512;7.504;2023-04-23T11:24:26;20.80;83.80
5415;DHT22;2730;51.512;7.504;2023-04-23T11:26:54;20.70;79.90
5415;DHT22;2730;51.512;7.504;2023-04-23T11:29:22;20.70;81.70
5415;DHT22;2730;51.512;7.504;2023-04-23T11:31:49;20.80;79.40
5415;DHT22;2730;51.512;7.504;2023-04-23T11:34:18;21.00;78.70
5415;DHT22;2730;51.512;7.504;2023-04-23T11:36:46;20.90;79.40
5415;DHT22;2730;51.512;7.504;2023-04-23T11:39:13;20.60;81.00
5415;DHT22;2730;51.512;7.504;2023-04-23T11:41:40;20.50;81.20
5415;DHT22;2730;51.512;7.504;2023-04-23T11:44:08;20.40;80.50
5415;DHT22;2730;51.512;7.504;2023-04-23T11:46:36;20.20;79.50
5415;DHT22;2730;51.512;7.504;2023-04-23T11:49:03;20.40;81.00
5415;DHT22;2730;51.512;7.504;2023-04-23T11:51:32;20.40;80.00
5415;DHT22;2730;51.512;7.504;2023-04-23T11:54:02;20.40;81.60
5415;DHT22;2730;51.512;7.504;2023-04-23T11:56:29;20.70;81.10
5415;DHT22;2730;51.512;7.504;2023-04-23T11:59:00;20.80;81.00
5415;DHT22;2730;51.512;7.504;2023-04-23T12:01:39;21.00;77.10
5415;DHT22;2730;51.512;7.504;2023-04-23T12:04:13;20.70;78.80
5415;DHT22;2730;51.512;7.504;2023-04-23T12:06:42;20.80;81.50
5415;DHT22;2730;51.512;7.504;2023-04-23T12:09:10;21.00;76.20
5415;DHT22;2730;51.512;7.504;2023-04-23T12:11:38;20.90;77.10
5415;DHT22;2730;51.512;7.504;2023-04-23T12:14:05;20.80;76.70
5415;DHT22;2730;51.512;7.504;2023-04-23T12:16:37;20.80;76.70
5415;DHT22;2730;51.512;7.504;2023-04-23T12:19:06;20.60;76.50
5415;DHT22;2730;51.512;7.504;2023-04-23T12:21:33;20.20;77.40
5415;DHT22;2730;51.512;7.504;2023-04-23T12:24:02;20.30;78.50
5415;DHT22;2730;51.512;7.504;2023-04-23T12:26:30;20.40;75.10
5415;DHT22;2730;51.512;7.504;2023-04-23T12:28:58;20.40;74.60
5415;DHT22;2730;51.512;7.504;2023-04-23T12:31:27;20.30;72.90
5415;DHT22;2730;51.512;7.504;2023-04-23T12:33:57;20.20;73.30
5415;DHT22;2730;51.512;7.504;2023-04-23T12:36:28;20.10;72.20
5415;DHT22;2730;51.512;7.504;2023-04-23T12:39:21;20.10;72.50
5415;DHT22;2730;51.512;7.504;2023-04-23T12:41:49;20.30;69.80
5415;DHT22;2730;51.512;7.504;2023-04-23T12:44:17;20.50;71.80
5415;DHT22;2730;51.512;7.504;2023-04-23T12:46:43;20.70;70.90
5415;DHT22;2730;51.512;7.504;2023-04-23T12:49:10;21.00;69.60
5415;DHT22;2730;51.512;7.504;2023-04-23T12:51:37;21.20;65.90
5415;DHT22;2730;51.512;7.504;2023-04-23T12:54:04;20.80;65.40
5415;DHT22;2730;51.512;7.504;2023-04-23T12:56:32;20.50;74.50
5415;DHT22;2730;51.512;7.504;2023-04-23T12:59:00;20.20;76.80
5415;DHT22;2730;51.512;7.504;2023-04-23T13:01:29;20.20;77.10
5415;DHT22;2730;51.512;7.504;2023-04-23T13:03:56;20.20;75.20
5415;DHT22;2730;51.512;7.504;2023-04-23T13:06:23;20.20;74.30
5415;DHT22;2730;51.512;7.504;2023-04-23T13:08:51;20.10;72.80
5415;DHT22;2730;51.512;7.504;2023-04-23T13:11:20;20.00;73.10
5415;DHT22;2730;51.512;7.504;2023-04-23T13:13:48;20.00;72.10
5415;DHT22;2730;51.512;7.504;2023-04-23T13:16:16;20.10;70.90
5415;DHT22;2730;51.512;7.504;2023-04-23T13:18:43;20.00;72.60
5415;DHT22;2730;51.512;7.504;2023-04-23T13:21:09;20.10;70.70
5415;DHT22;2730;51.512;7.504;2023-04-23T13:23:36;20.10;71.30
5415;DHT22;2730;51.512;7.504;2023-04-23T13:26:03;20.10;69.90
5415;DHT22;2730;51.512;7.504;2023-04-23T13:28:33;20.00;71.70
5415;DHT22;2730;51.512;7.504;2023-04-23T13:31:01;20.00;72.10
5415;DHT22;2730;51.512;7.504;2023-04-23T13:33:28;19.90;72.40
5415;DHT22;2730;51.512;7.504;2023-04-23T13:35:55;20.00;70.30
5415;DHT22;2730;51.512;7.504;2023-04-23T13:38:23;20.00;71.20
5415;DHT22;2730;51.512;7.504;2023-04-23T13:40:50;20.00;68.90
5415;DHT22;2730;51.512;7.504;2023-04-23T13:43:17;20.10;70.00
5415;DHT22;2730;51.512;7.504;2023-04-23T13:45:44;20.00;68.80
5415;DHT22;2730;51.512;7.504;2023-04-23T13:48:13;19.80;69.80
5415;DHT22;2730;51.512;7.504;2023-04-23T13:50:40;19.90;72.00
5415;DHT22;2730;51.512;7.504;2023-04-23T13:53:08;20.00;70.60
5415;DHT22;2730;51.512;7.504;2023-04-23T13:55:35;20.20;72.00
5415;DHT22;2730;51.512;7.504;2023-04-23T13:58:02;20.30;70.90
5415;DHT22;2730;51.512;7.504;2023-04-23T14:00:29;20.40;67.40
5415;DHT22;2730;51.512;7.504;2023-04-23T14:02:56;20.50;70.00
5415;DHT22;2730;51.512;7.504;2023-04-23T14:05:24;20.60;65.00
5415;DHT22;2730;51.512;7.504;2023-04-23T14:07:51;20.40;63.80
5415;DHT22;2730;51.512;7.504;2023-04-23T14:10:18;20.50;62.70
5415;DHT22;2730;51.512;7.504;2023-04-23T14:12:45;20.40;63.60
5415;DHT22;2730;51.512;7.504;2023-04-23T14:15:11;20.50;64.70
5415;DHT22;2730;51.512;7.504;2023-04-23T14:17:39;20.60;64.80
5415;DHT22;2730;51.512;7.504;2023-04-23T14:20:08;20.70;63.60
5415;DHT22;2730;51.512;7.504;2023-04-23T14:22:36;20.60;63.20
5415;DHT22;2730;51.512;7.504;2023-04-23T14:25:07;20.70;59.30
5415;DHT22;2730;51.512;7.504;2023-04-23T14:27:38;20.60;56.70
5415;DHT22;2730;51.512;7.504;2023-04-23T14:30:13;20.40;55.90
5415;DHT22;2730;51.512;7.504;2023-04-23T14:32:40;20.40;56.90
5415;DHT22;2730;51.512;7.504;2023-04-23T14:35:08;20.50;58.80
5415;DHT22;2730;51.512;7.504;2023-04-23T14:37:36;20.40;57.30
5415;DHT22;2730;51.512;7.504;2023-04-23T14:40:03;20.20;58.60
5415;DHT22;2730;51.512;7.504;2023-04-23T14:42:30;20.30;56.40
5415;DHT22;2730;51.512;7.504;2023-04-23T14:44:58;20.20;56.60
5415;DHT22;2730;51.512;7.504;2023-04-23T14:47:24;20.20;56.30
5415;DHT22;2730;51.512;7.504;2023-04-23T14:49:52;20.00;55.30
5415;DHT22;2730;51.512;7.504;2023-04-23T14:52:18;20.00;56.10
5415;DHT22;2730;51.512;7.504;2023-04-23T14:54:46;20.00;56.80
5415;DHT22;2730;51.512;7.504;2023-04-23T14:57:13;20.00;57.20
5415;DHT22;2730;51.512;7.504;2023-04-23T14:59:40;20.00;57.70
5415;DHT22;2730;51.512;7.504;2023-04-23T15:02:08;20.10;57.70
5415;DHT22;2730;51.512;7.504;2023-04-23T15:04:36;20.00;58.20
5415;DHT22;2730;51.512;7.504;2023-04-23T15:07:03;19.90;58.30
5415;DHT22;2730;51.512;7.504;2023-04-23T15:09:30;19.80;58.70
5415;DHT22;2730;51.512;7.504;2023-04-23T15:11:58;19.70;57.70
5415;DHT22;2730;51.512;7.504;2023-04-23T15:14:30;19.70;59.60
5415;DHT22;2730;51.512;7.504;2023-04-23T15:16:57;19.70;59.50
5415;DHT22;2730;51.512;7.504;2023-04-23T15:19:24;19.80;58.50
5415;DHT22;2730;51.512;7.504;2023-04-23T15:21:51;19.70;58.90
5415;DHT22;2730;51.512;7.504;2023-04-23T15:24:17;19.70;58.70
5415;DHT22;2730;51.512;7.504;2023-04-23T15:26:44;19.60;59.40
5415;DHT22;2730;51.512;7.504;2023-04-23T15:29:12;19.60;58.70
5415;DHT22;2730;51.512;7.504;2023-04-23T15:31:39;19.50;59.60
5415;DHT22;2730;51.512;7.504;2023-04-23T15:34:06;19.40;60.00
5415;DHT22;2730;51.512;7.504;2023-04-23T15:36:33;19.30;61.10
5415;DHT22;2730;51.512;7.504;2023-04-23T15:39:01;19.00;63.20
5415;DHT22;2730;51.512;7.504;2023-04-23T15:41:28;18.90;64.40
5415;DHT22;2730;51.512;7.504;2023-04-23T15:43:55;18.70;69.80
5415;DHT22;2730;51.512;7.504;2023-04-23T15:46:23;18.50;69.20
5415;DHT22;2730;51.512;7.504;2023-04-23T15:48:50;18.40;71.10
5415;DHT22;2730;51.512;7.504;2023-04-23T15:51:17;18.30;71.30
5415;DHT22;2730;51.512;7.504;2023-04-23T15:53:44;18.30;71.10
5415;DHT22;2730;51.512;7.504;2023-04-23T15:56:10;18.30;72.20
5415;DHT22;2730;51.512;7.504;2023-04-23T15:58:37;18.10;71.90
5415;DHT22;2730;51.512;7.504;2023-04-23T16:01:04;18.10;73.80
5415;DHT22;2730;51.512;7.504;2023-04-23T16:03:32;18.00;76.20
5415;DHT22;2730;51.512;7.504;2023-04-23T16:05:59;17.90;77.40
5415;DHT22;2730;51.512;7.504;2023-04-23T16:08:26;17.80;79.00